Time;durP1;ratioP1;P1;durP2;ratioP2;P2;SDS_P1;SDS_P2;PMS_P1;PMS_P2;Temp;Humidity;BMP_temperature;BMP_pressure;BME280_temperature;BME280_humidity;BME280_pressure;Samples;Min_cycle;Max_cycle;Signal;HPM_P1;HPM_P2
2022/06/19 00:01:00;;;;;;;13.95;3.05;;;24.00;92.70;;;;;;5073902;28;20774;-63
2022/06/19 00:03:30;;;;;;;12.77;3.35;;;24.00;92.70;;;;;;5074408;28;20209;-63
2022/06/19 00:05:57;;;;;;;13.80;3.65;;;23.90;93.20;;;;;;5074391;28;20216;-63
2022/06/19 00:08:24;;;;;;;9.35;3.00;;;23.90;93.30;;;;;;5074413;28;20201;-63
2022/06/19 00:10:51;;;;;;;10.77;3.70;;;24.00;93.20;;;;;;5073792;28;20237;-63
2022/06/19 00:13:19;;;;;;;14.30;3.45;;;23.90;93.10;;;;;;5073995;28;20224;-63
2022/06/19 00:15:46;;;;;;;16.85;3.53;;;24.00;93.10;;;;;;5074085;28;20673;-63
2022/06/19 00:18:13;;;;;;;10.38;3.33;;;23.90;93.20;;;;;;5074157;28;20212;-63
2022/06/19 00:20:40;;;;;;;17.10;3.40;;;23.90;93.50;;;;;;5073791;28;20555;-63
2022/06/19 00:23:07;;;;;;;8.50;3.20;;;23.80;93.60;;;;;;5074522;28;20205;-63
2022/06/19 00:25:35;;;;;;;16.80;3.45;;;23.70;93.90;;;;;;5074133;28;20205;-62
2022/06/19 00:28:02;;;;;;;10.60;3.08;;;23.50;94.90;;;;;;5073813;28;20757;-63
2022/06/19 00:30:30;;;;;;;8.98;3.13;;;23.40;95.10;;;;;;5073716;28;20234;-63
2022/06/19 00:32:57;;;;;;;11.55;3.08;;;23.40;95.20;;;;;;5074269;28;20236;-62
2022/06/19 00:35:26;;;;;;;17.08;3.45;;;23.40;95.20;;;;;;5073840;28;20669;-62
2022/06/19 00:37:53;;;;;;;10.65;3.25;;;23.40;95.40;;;;;;5073620;28;20205;-62
2022/06/19 00:40:20;;;;;;;10.75;3.00;;;23.30;95.50;;;;;;5073429;28;20205;-63
2022/06/19 00:42:48;;;;;;;8.95;3.10;;;23.40;95.50;;;;;;5073539;28;20773;-62
2022/06/19 00:45:37;;;;;;;8.27;3.03;;;23.40;95.30;;;;;;5073746;28;20262;-62
2022/06/19 00:48:11;;;;;;;13.02;3.50;;;23.40;95.20;;;;;;5073643;28;20215;-63
2022/06/19 00:50:39;;;;;;;9.75;3.63;;;23.30;95.20;;;;;;5073061;28;20232;-62
2022/06/19 00:53:11;;;;;;;13.43;3.30;;;23.30;95.60;;;;;;5073493;28;20566;-63
2022/06/19 00:55:42;;;;;;;8.88;3.22;;;23.30;95.60;;;;;;5073567;28;20262;-63
2022/06/19 00:58:13;;;;;;;12.05;3.17;;;23.20;95.40;;;;;;5072170;28;20213;-63
2022/06/19 01:00:43;;;;;;;11.77;2.88;;;23.20;95.70;;;;;;5073115;28;20296;-63
2022/06/19 01:03:14;;;;;;;8.93;3.70;;;23.20;96.00;;;;;;5073339;28;20208;-63
2022/06/19 01:05:44;;;;;;;9.20;3.20;;;23.10;96.30;;;;;;5073374;28;20209;-63
2022/06/19 01:08:12;;;;;;;8.77;3.13;;;23.00;96.70;;;;;;5073459;28;20204;-63
2022/06/19 01:10:42;;;;;;;12.35;3.55;;;23.00;97.00;;;;;;5073045;28;20292;-63
2022/06/19 01:13:09;;;;;;;11.93;2.95;;;23.00;97.10;;;;;;5073451;28;20224;-62
2022/06/19 01:15:38;;;;;;;12.68;3.17;;;23.00;97.30;;;;;;5073596;28;20243;-62
2022/06/19 01:18:09;;;;;;;6.30;2.80;;;22.90;97.60;;;;;;5073586;28;20228;-62
2022/06/19 01:20:37;;;;;;;8.90;3.20;;;22.80;97.70;;;;;;5072922;28;20673;-63
2022/06/19 01:23:11;;;;;;;5.57;2.53;;;22.80;97.90;;;;;;5073304;28;20200;-63
2022/06/19 01:25:42;;;;;;;6.85;3.13;;;22.80;97.80;;;;;;5072888;28;20296;-63
2022/06/19 01:30:58;;;;;;;11.02;3.75;;;22.70;98.30;;;;;;5072466;28;20702;-63
2022/06/19 01:33:31;;;;;;;9.98;3.15;;;22.70;98.40;;;;;;5072546;28;20778;-63
2022/06/19 01:35:59;;;;;;;12.73;3.47;;;22.70;98.50;;;;;;5072618;28;20209;-63
2022/06/19 01:38:28;;;;;;;10.35;3.20;;;22.70;98.40;;;;;;5072489;28;20576;-63
2022/06/19 01:41:00;;;;;;;10.23;3.75;;;22.60;99.20;;;;;;5072205;28;20283;-62
2022/06/19 01:43:27;;;;;;;11.10;3.80;;;22.50;99.80;;;;;;5072736;28;20204;-63
2022/06/19 01:45:56;;;;;;;8.13;3.83;;;22.50;99.90;;;;;;5072599;28;20205;-63
2022/06/19 01:48:27;;;;;;;10.23;3.67;;;22.40;99.80;;;;;;5072635;28;20232;-63
2022/06/19 01:50:56;;;;;;;9.20;3.33;;;22.40;99.70;;;;;;5072226;28;20320;-63
2022/06/19 01:53:27;;;;;;;11.30;3.45;;;22.30;99.80;;;;;;5072294;28;20224;-63
2022/06/19 01:55:56;;;;;;;8.07;2.90;;;22.20;99.80;;;;;;5072171;28;20220;-63
2022/06/19 01:58:28;;;;;;;14.15;3.28;;;22.10;99.90;;;;;;5072585;28;20330;-63
2022/06/19 02:00:54;;;;;;;11.25;2.97;;;22.00;99.90;;;;;;5072190;28;20286;-63
2022/06/19 02:03:26;;;;;;;9.27;2.55;;;22.00;99.90;;;;;;5072247;28;20201;-64
2022/06/19 02:05:53;;;;;;;12.90;2.85;;;22.00;99.90;;;;;;5072618;28;20205;-63
2022/06/19 02:08:21;;;;;;;8.27;2.95;;;21.80;99.90;;;;;;5072292;28;20201;-63
2022/06/19 02:10:49;;;;;;;11.35;2.70;;;21.70;99.90;;;;;;5072419;28;20784;-63
2022/06/19 02:13:20;;;;;;;13.52;2.97;;;21.70;99.90;;;;;;5072292;28;20293;-63
2022/06/19 02:15:49;;;;;;;8.75;2.72;;;21.60;99.90;;;;;;5072620;28;20232;-63
2022/06/19 02:18:21;;;;;;;12.07;3.20;;;21.60;99.90;;;;;;5072048;28;20554;-63
2022/06/19 02:20:50;;;;;;;7.75;2.75;;;21.60;99.90;;;;;;5071875;28;20282;-63
2022/06/19 02:23:20;;;;;;;9.27;2.78;;;21.50;99.90;;;;;;5072229;28;20278;-63
2022/06/19 02:25:49;;;;;;;10.30;3.10;;;21.50;99.90;;;;;;5071798;28;20579;-63
2022/06/19 02:28:18;;;;;;;7.65;2.35;;;21.60;99.90;;;;;;5072014;28;20254;-63
2022/06/19 02:30:46;;;;;;;11.65;2.80;;;21.60;99.90;;;;;;5071488;28;20282;-63
2022/06/19 02:33:15;;;;;;;9.57;2.88;;;21.60;99.90;;;;;;5071949;28;20667;-63
2022/06/19 02:35:42;;;;;;;10.05;3.00;;;21.60;99.90;;;;;;5071723;28;20739;-63
2022/06/19 02:38:09;;;;;;;13.57;3.53;;;21.70;99.90;;;;;;5071698;28;20615;-63
2022/06/19 02:40:43;;;;;;;8.10;2.80;;;21.80;99.90;;;;;;5071375;28;20677;-63
2022/06/19 02:43:17;;;;;;;11.25;3.28;;;21.80;99.90;;;;;;5071643;28;20661;-64
2022/06/19 02:45:45;;;;;;;11.23;3.35;;;21.80;99.90;;;;;;5071820;28;20204;-63
2022/06/19 02:48:20;;;;;;;9.07;3.17;;;21.80;99.90;;;;;;5071959;28;20645;-63
2022/06/19 02:50:48;;;;;;;12.05;3.20;;;21.70;99.90;;;;;;5071581;28;20252;-63
2022/06/19 02:53:15;;;;;;;9.15;3.17;;;21.70;99.90;;;;;;5071553;28;20228;-63
2022/06/19 02:55:42;;;;;;;11.75;3.30;;;21.70;99.90;;;;;;5071939;28;20303;-63
2022/06/19 02:58:09;;;;;;;13.65;3.30;;;21.80;99.90;;;;;;5071783;28;20204;-63
2022/06/19 03:00:37;;;;;;;6.75;3.03;;;21.70;99.90;;;;;;5071560;28;20270;-63
2022/06/19 03:03:08;;;;;;;10.07;4.43;;;21.70;99.90;;;;;;5071682;28;20212;-63
2022/06/19 03:05:35;;;;;;;13.75;3.67;;;21.70;99.90;;;;;;5071638;28;20759;-63
2022/06/19 03:08:02;;;;;;;8.40;3.35;;;21.70;99.90;;;;;;5071664;28;20608;-63
2022/06/19 03:10:30;;;;;;;11.60;3.17;;;21.70;99.90;;;;;;5071385;28;20211;-62
2022/06/19 03:12:57;;;;;;;8.00;3.45;;;21.60;99.90;;;;;;5071716;28;20229;-63
2022/06/19 03:15:24;;;;;;;11.00;4.55;;;21.60;99.90;;;;;;5071763;28;20204;-62
2022/06/19 03:17:51;;;;;;;10.93;3.15;;;21.60;99.90;;;;;;5071680;28;20208;-63
2022/06/19 03:20:21;;;;;;;9.07;3.53;;;21.60;99.90;;;;;;5071913;28;20213;-63
2022/06/19 03:22:48;;;;;;;9.75;3.90;;;21.50;99.90;;;;;;5075450;28;20729;-63
2022/06/19 03:25:15;;;;;;;9.20;3.60;;;21.60;99.90;;;;;;5075414;28;20300;-63
2022/06/19 03:27:42;;;;;;;11.57;3.35;;;21.50;99.90;;;;;;5075814;28;20235;-63
2022/06/19 03:30:10;;;;;;;13.27;2.95;;;21.40;99.90;;;;;;5075128;28;20572;-64
2022/06/19 03:32:36;;;;;;;9.30;2.85;;;21.40;99.90;;;;;;5075293;28;20282;-63
2022/06/19 03:35:03;;;;;;;15.20;3.03;;;21.40;99.90;;;;;;5075505;28;20216;-63
2022/06/19 03:37:31;;;;;;;15.35;3.47;;;21.40;99.90;;;;;;5075137;28;20205;-63
2022/06/19 03:39:58;;;;;;;9.95;3.50;;;21.40;99.90;;;;;;5075046;28;20208;-63
2022/06/19 03:42:24;;;;;;;10.65;3.13;;;21.40;99.90;;;;;;5075149;28;20635;-63
2022/06/19 03:44:51;;;;;;;10.05;3.00;;;21.50;99.90;;;;;;5075126;28;20205;-63
2022/06/19 03:47:21;;;;;;;10.20;2.50;;;21.60;99.90;;;;;;5074756;28;20205;-63
2022/06/19 03:49:49;;;;;;;11.05;2.78;;;21.70;99.90;;;;;;5074505;28;20258;-63
2022/06/19 03:52:16;;;;;;;12.43;2.80;;;21.70;99.90;;;;;;5074875;28;20252;-63
2022/06/19 03:54:44;;;;;;;11.52;2.90;;;21.80;99.90;;;;;;5074933;28;20262;-64
2022/06/19 03:57:13;;;;;;;8.90;3.00;;;21.80;99.90;;;;;;5074773;28;20259;-63
2022/06/19 03:59:40;;;;;;;10.30;2.90;;;21.80;99.90;;;;;;5074235;28;20676;-63
2022/06/19 04:02:08;;;;;;;9.35;2.85;;;21.90;99.90;;;;;;5074516;28;20237;-63
2022/06/19 04:04:35;;;;;;;9.65;2.60;;;22.00;99.90;;;;;;5074690;28;20300;-63
2022/06/19 04:07:02;;;;;;;12.95;3.15;;;22.20;99.90;;;;;;5074552;28;20212;-63
2022/06/19 04:09:29;;;;;;;12.60;3.08;;;22.20;99.90;;;;;;5074205;28;20212;-64
2022/06/19 04:11:57;;;;;;;8.07;2.92;;;22.30;99.70;;;;;;5074416;28;20229;-63
2022/06/19 04:14:24;;;;;;;9.90;2.92;;;22.40;99.50;;;;;;5074196;28;20225;-63
2022/06/19 04:16:50;;;;;;;7.57;2.75;;;22.50;99.20;;;;;;5074163;28;20254;-63
2022/06/19 04:19:17;;;;;;;16.48;3.00;;;22.40;99.20;;;;;;5074085;28;20664;-63
2022/06/19 04:21:46;;;;;;;16.30;2.50;;;22.30;99.10;;;;;;5074850;28;20594;-63
2022/06/19 04:24:15;;;;;;;9.48;3.05;;;22.50;99.40;;;;;;5076067;28;20653;-63
2022/06/19 04:26:43;;;;;;;17.52;3.17;;;22.50;99.00;;;;;;5075867;28;20213;-63
2022/06/19 04:29:11;;;;;;;10.10;2.75;;;22.70;98.80;;;;;;5076161;28;20213;-63
2022/06/19 04:31:38;;;;;;;14.50;3.08;;;22.90;98.80;;;;;;5076848;28;20650;-63
2022/06/19 04:34:05;;;;;;;9.55;3.00;;;23.00;98.80;;;;;;5076103;28;20367;-63
2022/06/19 04:36:32;;;;;;;7.22;3.00;;;23.20;98.90;;;;;;5075773;28;20235;-63
2022/06/19 04:39:00;;;;;;;12.40;3.30;;;23.30;98.90;;;;;;5074273;28;20209;-63
2022/06/19 04:41:28;;;;;;;13.68;2.97;;;23.40;98.50;;;;;;5074070;28;20225;-63
2022/06/19 04:43:57;;;;;;;8.05;2.80;;;23.60;98.10;;;;;;5074651;28;20204;-63
2022/06/19 04:46:25;;;;;;;8.82;2.65;;;23.90;97.80;;;;;;5079979;28;20208;-63
2022/06/19 04:48:53;;;;;;;9.10;2.50;;;24.60;97.00;;;;;;5080799;28;20285;-63
2022/06/19 04:51:20;;;;;;;9.57;2.92;;;25.70;95.00;;;;;;5079665;28;20225;-63
2022/06/19 04:53:46;;;;;;;10.07;2.50;;;26.90;92.60;;;;;;5075416;28;20232;-63
2022/06/19 04:56:15;;;;;;;15.95;3.15;;;28.00;90.20;;;;;;5073437;28;20209;-63
2022/06/19 04:58:42;;;;;;;7.68;2.65;;;28.90;86.20;;;;;;5073330;28;20240;-63
2022/06/19 05:01:12;;;;;;;11.18;3.25;;;29.60;82.60;;;;;;5073326;28;20229;-63
2022/06/19 05:03:41;;;;;;;8.40;2.67;;;30.20;79.70;;;;;;5073299;28;20295;-61
2022/06/19 05:06:07;;;;;;;11.43;2.92;;;30.90;76.30;;;;;;5073309;28;20219;-62
2022/06/19 05:08:34;;;;;;;13.40;3.13;;;31.50;73.60;;;;;;5073268;28;20216;-62
2022/06/19 05:11:01;;;;;;;8.82;3.38;;;32.10;71.40;;;;;;5097418;22;20221;-64
2022/06/19 05:13:30;;;;;;;13.48;2.83;;;32.60;69.20;;;;;;5076226;28;20249;-64
2022/06/19 05:16:05;;;;;;;8.75;2.78;;;33.20;67.70;;;;;;5077168;28;20292;-64
2022/06/19 05:18:34;;;;;;;7.47;3.03;;;33.60;65.80;;;;;;5075867;28;20715;-65
2022/06/19 05:21:04;;;;;;;13.20;2.88;;;34.00;63.10;;;;;;5076052;28;20670;-65
2022/06/19 05:23:31;;;;;;;9.68;3.13;;;34.00;62.50;;;;;;5076796;28;20236;-64
2022/06/19 05:26:01;;;;;;;12.55;3.10;;;34.30;61.00;;;;;;5076981;28;20256;-64
2022/06/19 05:28:29;;;;;;;15.02;3.25;;;34.50;60.00;;;;;;5075699;28;20213;-64
2022/06/19 05:30:57;;;;;;;12.18;3.40;;;34.80;58.90;;;;;;5075919;28;20213;-64
2022/06/19 05:33:23;;;;;;;13.20;3.00;;;35.30;58.50;;;;;;5076708;28;20445;-64
2022/06/19 05:35:50;;;;;;;14.82;3.35;;;35.80;56.30;;;;;;5070440;28;20204;-61
2022/06/19 05:38:18;;;;;;;11.43;3.00;;;36.40;55.60;;;;;;5072187;28;20217;-61
2022/06/19 05:40:45;;;;;;;11.82;2.90;;;37.00;54.40;;;;;;5072341;28;20664;-62
2022/06/19 05:43:12;;;;;;;8.02;2.90;;;37.50;53.10;;;;;;5071957;28;20197;-61
2022/06/19 05:45:39;;;;;;;14.55;3.10;;;38.20;52.20;;;;;;5072267;28;20209;-61
2022/06/19 05:48:06;;;;;;;12.13;3.05;;;38.80;51.10;;;;;;5072232;28;20562;-61
2022/06/19 05:50:33;;;;;;;11.52;3.42;;;39.30;50.40;;;;;;5071837;28;20695;-62
2022/06/19 05:53:01;;;;;;;13.73;3.10;;;39.70;49.50;;;;;;5072083;28;20773;-61
2022/06/19 05:55:30;;;;;;;17.52;3.17;;;40.20;48.20;;;;;;5073242;28;20243;-65
2022/06/19 05:57:56;;;;;;;11.93;3.25;;;40.50;47.50;;;;;;5073840;28;20208;-60
2022/06/19 06:00:23;;;;;;;11.00;2.92;;;40.90;46.90;;;;;;5075021;28;20224;-64
2022/06/19 06:02:50;;;;;;;10.73;2.80;;;41.30;46.20;;;;;;5074506;28;20221;-64
2022/06/19 06:05:17;;;;;;;9.48;2.92;;;41.40;46.20;;;;;;5074026;28;20224;-64
2022/06/19 06:07:44;;;;;;;9.00;3.00;;;41.50;45.60;;;;;;5074102;28;20212;-62
2022/06/19 06:10:12;;;;;;;11.57;3.40;;;41.60;46.00;;;;;;5073015;28;20213;-65
2022/06/19 06:12:40;;;;;;;13.18;3.28;;;42.10;45.20;;;;;;5073142;28;20714;-68
2022/06/19 06:15:07;;;;;;;11.13;3.28;;;42.30;44.90;;;;;;5072912;28;20612;-63
2022/06/19 06:17:34;;;;;;;12.20;3.20;;;42.70;44.20;;;;;;5072587;28;20694;-61
2022/06/19 06:20:02;;;;;;;9.90;2.90;;;43.40;43.20;;;;;;5071689;28;20302;-61
2022/06/19 06:22:29;;;;;;;10.95;2.97;;;43.60;42.50;;;;;;5071697;28;20228;-60
2022/06/19 06:24:56;;;;;;;11.45;3.13;;;43.70;42.20;;;;;;5072466;28;20226;-62
2022/06/19 06:27:23;;;;;;;12.57;3.50;;;43.90;41.90;;;;;;5072030;28;20295;-60
2022/06/19 06:29:51;;;;;;;11.65;3.30;;;44.00;41.80;;;;;;5071704;28;20208;-63
2022/06/19 06:32:18;;;;;;;13.73;3.42;;;44.10;41.30;;;;;;5071952;28;20617;-63
2022/06/19 06:34:45;;;;;;;18.88;3.80;;;44.30;40.30;;;;;;5071182;28;20699;-61
2022/06/19 06:37:12;;;;;;;13.95;3.38;;;44.40;39.80;;;;;;5071983;28;20200;-61
2022/06/19 06:39:38;;;;;;;16.50;3.83;;;44.90;39.10;;;;;;5072087;28;20230;-62
2022/06/19 06:42:06;;;;;;;14.18;3.10;;;45.50;38.10;;;;;;5071889;28;20711;-62
2022/06/19 06:44:33;;;;;;;14.57;3.67;;;45.70;37.80;;;;;;5071525;28;20209;-61
2022/06/19 06:47:03;;;;;;;19.60;3.22;;;46.00;37.40;;;;;;5071942;28;20204;-64
2022/06/19 06:49:30;;;;;;;15.68;4.25;;;45.80;37.00;;;;;;5072410;28;20204;-63
2022/06/19 06:51:57;;;;;;;14.20;3.45;;;45.10;37.10;;;;;;5072286;28;20230;-63
2022/06/19 06:54:23;;;;;;;19.10;3.90;;;45.10;37.20;;;;;;5065965;28;20220;-65
2022/06/19 06:56:50;;;;;;;19.23;4.72;;;45.60;36.60;;;;;;5074115;28;20721;-62
2022/06/19 06:59:17;;;;;;;12.70;3.45;;;46.10;35.60;;;;;;5075336;28;20698;-62
2022/06/19 07:01:44;;;;;;;15.60;3.63;;;46.60;35.20;;;;;;5075488;28;20266;-63
2022/06/19 07:04:13;;;;;;;16.17;4.32;;;47.00;34.90;;;;;;5075898;28;20482;-64
2022/06/19 07:06:39;;;;;;;14.30;3.70;;;47.00;34.60;;;;;;5073823;28;20617;-61
2022/06/19 07:09:07;;;;;;;17.67;3.90;;;47.00;34.40;;;;;;5074524;28;20208;-61
2022/06/19 07:11:37;;;;;;;14.73;3.47;;;47.30;34.50;;;;;;5074539;28;20232;-61
2022/06/19 07:14:03;;;;;;;14.95;3.75;;;47.60;33.80;;;;;;5074885;28;20219;-61
2022/06/19 07:16:30;;;;;;;15.00;3.72;;;47.90;33.50;;;;;;5075484;28;20618;-61
2022/06/19 07:18:57;;;;;;;14.90;3.58;;;48.20;33.30;;;;;;5075594;28;20679;-64
2022/06/19 07:21:25;;;;;;;16.30;3.78;;;48.90;32.90;;;;;;5075781;28;20295;-62
2022/06/19 07:23:52;;;;;;;13.07;3.90;;;49.50;32.40;;;;;;5075389;28;20660;-63
2022/06/19 07:26:22;;;;;;;11.68;3.90;;;50.20;31.60;;;;;;5075725;28;20679;-62
2022/06/19 07:28:49;;;;;;;14.55;3.53;;;50.40;31.40;;;;;;5075573;28;20219;-61
2022/06/19 07:31:16;;;;;;;21.73;3.85;;;50.50;31.20;;;;;;5075287;28;20316;-68
2022/06/19 07:33:43;;;;;;;13.40;3.47;;;50.40;31.40;;;;;;5076908;28;20208;-65
2022/06/19 07:36:14;;;;;;;14.52;3.47;;;50.20;31.50;;;;;;5076139;28;20211;-66
2022/06/19 07:38:43;;;;;;;14.18;3.25;;;50.00;31.40;;;;;;5076743;28;20287;-62
2022/06/19 07:41:10;;;;;;;12.45;3.47;;;49.90;31.80;;;;;;5075577;28;20224;-62
2022/06/19 07:43:37;;;;;;;14.07;3.53;;;49.80;31.30;;;;;;5075494;28;20204;-60
2022/06/19 07:46:04;;;;;;;15.40;4.00;;;49.80;31.70;;;;;;5075680;28;20208;-61
2022/06/19 07:51:20;;;;;;;16.25;3.80;;;50.00;31.60;;;;;;5075291;28;20757;-61
2022/06/19 07:53:48;;;;;;;14.70;3.53;;;49.30;32.00;;;;;;5075452;28;20241;-61
2022/06/19 07:56:15;;;;;;;15.40;3.40;;;48.20;32.70;;;;;;5075632;28;20208;-61
2022/06/19 07:58:42;;;;;;;11.48;3.83;;;47.80;33.30;;;;;;5075590;28;20200;-62
2022/06/19 08:01:08;;;;;;;15.82;4.35;;;47.50;33.30;;;;;;5075571;28;20227;-62
2022/06/19 08:03:35;;;;;;;16.80;3.72;;;47.70;33.40;;;;;;5075582;28;20204;-62
2022/06/19 08:06:02;;;;;;;10.85;3.53;;;48.10;33.00;;;;;;5074807;28;20204;-61
2022/06/19 08:08:32;;;;;;;15.35;3.95;;;48.80;32.90;;;;;;5075107;28;20240;-60
2022/06/19 08:11:01;;;;;;;15.20;4.45;;;49.30;32.30;;;;;;5075095;28;20218;-61
2022/06/19 08:13:30;;;;;;;15.18;4.72;;;49.70;31.70;;;;;;5075608;28;20668;-61
2022/06/19 08:15:59;;;;;;;9.00;3.78;;;50.00;31.80;;;;;;5075728;28;20227;-63
2022/06/19 08:18:27;;;;;;;14.85;3.78;;;50.00;31.70;;;;;;5075462;28;20680;-62
2022/06/19 08:20:54;;;;;;;13.10;4.60;;;50.00;31.80;;;;;;5075458;28;20219;-63
2022/06/19 08:23:20;;;;;;;12.60;3.78;;;50.10;31.80;;;;;;5075715;28;20204;-63
2022/06/19 08:25:48;;;;;;;13.35;4.15;;;50.50;31.80;;;;;;5075359;28;20692;-63
2022/06/19 08:28:18;;;;;;;11.60;4.10;;;51.10;31.00;;;;;;5075345;28;20215;-62
2022/06/19 08:30:45;;;;;;;15.13;4.00;;;51.10;31.20;;;;;;5074772;28;20719;-62
2022/06/19 08:33:12;;;;;;;17.25;3.97;;;51.10;31.00;;;;;;5074619;28;20205;-61
2022/06/19 08:35:43;;;;;;;13.13;4.40;;;50.80;31.40;;;;;;5075068;28;20250;-62
2022/06/19 08:38:15;;;;;;;12.00;3.88;;;50.60;31.10;;;;;;5075030;28;20208;-61
2022/06/19 08:40:58;;;;;;;15.00;4.03;;;50.80;31.10;;;;;;5074640;28;20208;-61
2022/06/19 08:43:39;;;;;;;17.63;4.05;;;50.60;31.20;;;;;;5074904;28;20269;-62
2022/06/19 08:46:17;;;;;;;14.65;4.43;;;50.60;31.30;;;;;;5074984;28;20200;-61
2022/06/19 08:48:53;;;;;;;11.80;4.82;;;50.00;31.80;;;;;;5074376;28;20668;-61
2022/06/19 08:51:30;;;;;;;13.63;4.88;;;49.60;32.20;;;;;;5075119;28;20228;-61
2022/06/19 08:54:11;;;;;;;15.18;4.53;;;49.00;32.50;;;;;;5074738;28;20649;-60
2022/06/19 08:56:48;;;;;;;15.73;4.50;;;47.80;33.80;;;;;;5075548;28;20209;-63
2022/06/19 08:59:25;;;;;;;15.55;4.57;;;46.30;34.90;;;;;;5075389;28;20207;-61
2022/06/19 09:01:59;;;;;;;17.20;4.95;;;44.70;36.30;;;;;;5074621;28;20227;-63
2022/06/19 09:07:26;;;;;;;14.88;4.82;;;41.70;39.90;;;;;;5055662;28;20630;-65
2022/06/19 09:10:07;;;;;;;12.13;4.53;;;40.30;41.50;;;;;;5055534;28;20699;-64
2022/06/19 09:12:54;;;;;;;16.10;4.88;;;39.50;42.50;;;;;;5054352;28;20240;-63
2022/06/19 09:15:33;;;;;;;15.38;4.95;;;39.00;43.50;;;;;;5054905;28;20230;-63
2022/06/19 09:18:02;;;;;;;13.50;4.32;;;38.20;44.80;;;;;;5054429;28;20209;-65
2022/06/19 09:20:39;;;;;;;16.40;5.68;;;37.50;45.80;;;;;;5055041;28;20212;-63
2022/06/19 09:23:32;;;;;;;14.70;5.10;;;36.90;47.10;;;;;;5060341;28;20525;-63
2022/06/19 09:26:08;;;;;;;13.10;5.10;;;36.30;48.40;;;;;;5068757;28;20656;-62
2022/06/19 09:28:41;;;;;;;16.15;5.30;;;36.10;48.50;;;;;;5074515;28;20299;-66
2022/06/19 09:31:16;;;;;;;12.07;5.43;;;36.10;49.00;;;;;;5074635;28;20228;-63
2022/06/19 09:33:50;;;;;;;18.00;5.18;;;36.10;48.70;;;;;;5072939;28;20691;-65
2022/06/19 09:36:24;;;;;;;16.40;4.72;;;36.10;48.70;;;;;;5073803;28;20319;-64
2022/06/19 09:38:57;;;;;;;18.67;5.15;;;36.10;48.40;;;;;;5072280;28;20204;-63
2022/06/19 09:41:31;;;;;;;15.25;4.88;;;36.20;48.50;;;;;;5072654;28;20228;-64
2022/06/19 09:44:04;;;;;;;15.35;4.88;;;36.10;48.40;;;;;;5073838;28;20255;-66
2022/06/19 09:46:39;;;;;;;18.70;4.97;;;35.80;48.20;;;;;;5072454;28;20204;-62
2022/06/19 09:49:11;;;;;;;14.38;4.97;;;35.80;48.50;;;;;;5072354;28;20205;-63
2022/06/19 09:51:46;;;;;;;17.90;5.53;;;35.80;48.60;;;;;;5074144;28;20233;-63
2022/06/19 09:54:16;;;;;;;16.55;4.90;;;35.80;48.30;;;;;;5074708;28;20204;-64
2022/06/19 09:56:49;;;;;;;14.73;5.00;;;35.90;48.80;;;;;;5074027;28;20205;-66
2022/06/19 09:59:21;;;;;;;14.98;5.00;;;36.10;48.00;;;;;;5072991;28;20220;-64
2022/06/19 10:01:56;;;;;;;12.13;5.07;;;36.00;48.10;;;;;;5073472;28;20646;-62
2022/06/19 10:04:33;;;;;;;12.93;4.93;;;35.80;47.90;;;;;;5074648;28;20215;-63
2022/06/19 10:07:04;;;;;;;12.30;4.82;;;35.70;48.20;;;;;;5074887;28;20272;-64
2022/06/19 10:09:36;;;;;;;14.40;4.78;;;35.60;48.10;;;;;;5074835;28;20205;-63
2022/06/19 10:12:07;;;;;;;15.50;4.95;;;35.50;47.60;;;;;;5073985;28;20323;-63
2022/06/19 10:14:37;;;;;;;18.52;5.00;;;35.50;48.30;;;;;;5073415;28;20259;-64
2022/06/19 10:17:17;;;;;;;12.15;4.45;;;35.70;48.60;;;;;;5072685;28;20261;-64
2022/06/19 10:19:48;;;;;;;19.35;4.95;;;35.80;48.20;;;;;;5075645;28;20613;-64
2022/06/19 10:22:37;;;;;;;15.73;4.95;;;35.80;47.60;;;;;;5074291;28;20221;-63
2022/06/19 10:25:33;;;;;;;15.13;4.93;;;35.80;47.50;;;;;;5074780;28;20201;-64
2022/06/19 10:28:11;;;;;;;12.20;4.22;;;35.80;47.90;;;;;;5073519;28;20215;-63
2022/06/19 10:30:55;;;;;;;14.13;4.63;;;35.90;47.70;;;;;;5069868;28;20205;-61
2022/06/19 10:33:35;;;;;;;16.80;4.80;;;36.00;44.20;;;;;;5071978;28;20250;-62
2022/06/19 10:36:11;;;;;;;17.70;3.97;;;36.20;45.50;;;;;;5071376;28;20607;-62
2022/06/19 10:38:57;;;;;;;14.13;4.10;;;36.30;45.80;;;;;;5072119;28;20215;-61
2022/06/19 10:44:25;;;;;;;16.38;4.80;;;36.60;40.80;;;;;;5074565;28;20204;-65
2022/06/19 10:47:02;;;;;;;16.02;4.68;;;36.80;40.70;;;;;;5073497;28;20208;-64
2022/06/19 10:49:41;;;;;;;16.58;4.60;;;36.90;40.10;;;;;;5072400;28;20204;-63
2022/06/19 10:52:15;;;;;;;15.95;4.60;;;37.00;40.40;;;;;;5073897;28;20231;-62
2022/06/19 10:54:56;;;;;;;12.93;4.55;;;37.10;39.90;;;;;;5072519;28;20204;-64
2022/06/19 10:57:33;;;;;;;18.13;4.90;;;37.10;38.80;;;;;;5074628;28;20208;-63
2022/06/19 11:00:00;;;;;;;16.33;5.15;;;37.10;38.30;;;;;;5074107;28;20208;-61
2022/06/19 11:05:27;;;;;;;13.77;4.97;;;37.10;38.80;;;;;;5072815;28;20216;-61
2022/06/19 11:07:54;;;;;;;9.98;4.22;;;37.10;38.30;;;;;;5072656;28;20208;-61
2022/06/19 11:10:28;;;;;;;17.15;4.40;;;37.10;38.20;;;;;;5073215;28;20209;-62
2022/06/19 11:12:58;;;;;;;18.10;4.70;;;37.20;38.00;;;;;;5073563;28;20611;-60
2022/06/19 11:15:31;;;;;;;12.90;4.45;;;37.30;38.30;;;;;;5072437;28;20783;-60
2022/06/19 11:18:14;;;;;;;13.13;4.18;;;37.40;37.80;;;;;;5072348;28;20207;-59
2022/06/19 11:20:54;;;;;;;14.13;4.70;;;37.50;37.40;;;;;;5072491;28;20244;-60
2022/06/19 11:23:28;;;;;;;13.85;4.63;;;37.60;37.40;;;;;;5073035;28;20274;-58
2022/06/19 11:26:02;;;;;;;16.30;4.50;;;37.60;37.90;;;;;;5072842;28;20284;-59
2022/06/19 11:28:49;;;;;;;17.55;4.88;;;37.60;38.20;;;;;;5073319;28;20556;-60
2022/06/19 11:31:19;;;;;;;15.55;4.20;;;37.70;38.10;;;;;;5072792;28;20599;-59
2022/06/19 11:33:48;;;;;;;11.13;4.55;;;37.70;37.60;;;;;;5073376;28;20651;-60
2022/06/19 11:36:37;;;;;;;15.82;4.75;;;37.80;37.40;;;;;;5073243;28;20223;-61
2022/06/19 11:39:32;;;;;;;12.48;4.75;;;37.90;37.90;;;;;;5073747;28;20201;-60
2022/06/19 11:41:59;;;;;;;14.55;5.18;;;37.90;37.80;;;;;;5075250;28;20229;-59
2022/06/19 11:44:26;;;;;;;8.27;4.03;;;38.00;37.40;;;;;;5077024;28;20204;-58
2022/06/19 11:46:55;;;;;;;11.80;4.45;;;38.00;40.10;;;;;;5076554;28;20568;-60
2022/06/19 11:49:29;;;;;;;16.67;5.00;;;38.00;38.40;;;;;;5077875;28;20634;-59
2022/06/19 11:52:00;;;;;;;11.77;4.05;;;37.90;39.50;;;;;;5078599;28;20263;-61
2022/06/19 11:54:34;;;;;;;13.82;4.22;;;37.90;41.30;;;;;;5077986;28;20209;-61
2022/06/19 11:57:01;;;;;;;9.00;3.92;;;37.90;41.10;;;;;;5077909;28;20213;-60
2022/06/19 11:59:44;;;;;;;13.13;4.07;;;37.80;41.30;;;;;;5077460;28;20547;-60
2022/06/19 12:02:27;;;;;;;10.18;4.40;;;37.60;41.10;;;;;;5077667;28;20794;-59
2022/06/19 12:04:56;;;;;;;16.17;4.20;;;37.60;41.00;;;;;;5076202;28;20274;-59
2022/06/19 12:07:28;;;;;;;10.68;4.00;;;37.70;41.00;;;;;;5077748;28;20216;-60
2022/06/19 12:09:59;;;;;;;9.80;3.95;;;37.60;41.40;;;;;;5076821;28;20205;-59
2022/06/19 12:12:27;;;;;;;12.95;4.10;;;37.60;41.90;;;;;;5076674;28;20268;-59
2022/06/19 12:15:00;;;;;;;13.77;4.13;;;37.60;41.90;;;;;;5077334;28;20201;-59
2022/06/19 12:17:38;;;;;;;10.77;4.05;;;37.60;41.30;;;;;;5076889;28;20204;-59
2022/06/19 12:20:20;;;;;;;10.30;3.85;;;37.70;41.70;;;;;;5077418;28;20213;-59
2022/06/19 12:22:51;;;;;;;16.13;4.35;;;37.70;42.40;;;;;;5077445;28;20689;-59
2022/06/19 12:25:31;;;;;;;11.55;4.07;;;37.60;42.30;;;;;;5077139;28;20201;-59
2022/06/19 12:28:09;;;;;;;16.00;4.13;;;37.60;41.90;;;;;;5077191;28;20265;-59
2022/06/19 12:30:40;;;;;;;9.50;4.22;;;37.50;42.30;;;;;;5076255;28;20213;-60
2022/06/19 12:33:17;;;;;;;10.70;3.63;;;37.50;42.20;;;;;;5076121;28;20236;-61
2022/06/19 12:35:47;;;;;;;11.43;4.15;;;37.40;42.50;;;;;;5075783;28;20223;-60
2022/06/19 12:38:19;;;;;;;14.23;4.35;;;37.30;42.70;;;;;;5076353;28;20624;-61
2022/06/19 12:41:04;;;;;;;11.65;4.70;;;37.20;42.40;;;;;;5075663;28;20254;-59
2022/06/19 12:43:45;;;;;;;10.45;4.25;;;37.10;43.00;;;;;;5075212;28;20208;-60
2022/06/19 12:46:25;;;;;;;12.02;4.45;;;37.00;42.90;;;;;;5075249;28;20668;-60
2022/06/19 12:48:59;;;;;;;11.43;4.30;;;37.00;43.50;;;;;;5075115;28;20291;-60
2022/06/19 12:51:32;;;;;;;15.88;4.70;;;37.10;44.60;;;;;;5074273;28;20294;-60
2022/06/19 12:54:17;;;;;;;11.73;4.32;;;37.20;44.40;;;;;;5074137;28;20581;-60
2022/06/19 12:57:03;;;;;;;13.27;4.63;;;37.20;43.10;;;;;;5074066;28;20719;-60
2022/06/19 12:59:43;;;;;;;12.02;4.03;;;37.30;43.70;;;;;;5074429;28;20217;-61
2022/06/19 13:02:16;;;;;;;10.68;4.55;;;37.30;43.70;;;;;;5073781;28;20232;-60
2022/06/19 13:05:03;;;;;;;10.05;4.35;;;37.20;43.60;;;;;;5074500;28;20292;-61
2022/06/19 13:07:42;;;;;;;11.15;4.32;;;37.10;43.70;;;;;;5074094;28;20579;-60
2022/06/19 13:10:35;;;;;;;12.32;4.40;;;37.20;43.70;;;;;;5073790;28;20208;-60